createdAt,value
2023-02-18T00:00:30.384Z,7.40
2023-02-18T00:02:57.527Z,7.30
2023-02-18T00:05:24.365Z,7.20
2023-02-18T00:07:51.231Z,7.20
2023-02-18T00:10:18.210Z,7.10
2023-02-18T00:12:45.552Z,7.10
2023-02-18T00:15:13.272Z,7.10
2023-02-18T00:17:40.281Z,7.10
2023-02-18T00:20:08.299Z,7.10
2023-02-18T00:22:35.397Z,7.00
2023-02-18T00:25:08.570Z,7.10
2023-02-18T00:27:35.506Z,7.10
2023-02-18T00:30:04.016Z,7.20
2023-02-18T00:32:30.829Z,7.20
2023-02-18T00:34:57.634Z,7.10
2023-02-18T00:37:24.548Z,7.20
2023-02-18T00:39:51.424Z,7.20
2023-02-18T00:42:18.245Z,7.20
2023-02-18T00:44:45.106Z,7.10
2023-02-18T00:47:11.905Z,7.10
2023-02-18T00:49:38.932Z,7.00
2023-02-18T00:52:05.745Z,7.10
2023-02-18T00:54:33.065Z,7.10
2023-02-18T00:57:00.106Z,7.10
2023-02-18T00:59:26.929Z,7.10
2023-02-18T01:01:53.772Z,7.10
2023-02-18T01:04:20.955Z,7.20
2023-02-18T01:06:47.754Z,7.30
2023-02-18T01:09:14.547Z,7.40
2023-02-18T01:11:41.383Z,7.40
2023-02-18T01:14:08.143Z,7.50
2023-02-18T01:16:35.158Z,7.50
2023-02-18T01:19:02.176Z,7.50
2023-02-18T01:21:31.877Z,7.50
2023-02-18T01:23:59.716Z,7.50
2023-02-18T01:26:29.307Z,7.50
2023-02-18T01:28:59.032Z,7.60
2023-02-18T01:31:27.760Z,7.70
2023-02-18T01:33:55.610Z,7.70
2023-02-18T01:36:25.493Z,7.70
2023-02-18T01:38:53.622Z,7.80
2023-02-18T01:41:23.686Z,7.90
2023-02-18T01:44:16.823Z,7.90
2023-02-18T01:46:43.864Z,7.90
2023-02-18T01:49:15.705Z,8.00
2023-02-18T01:51:50.352Z,8.00
2023-02-18T01:54:30.360Z,8.00
2023-02-18T01:57:02.087Z,8.00
2023-02-18T01:59:37.947Z,8.10
2023-02-18T02:02:07.094Z,8.10
2023-02-18T02:04:34.220Z,8.20
2023-02-18T02:07:01.089Z,8.20
2023-02-18T02:09:30.003Z,8.20
2023-02-18T02:12:15.496Z,8.20
2023-02-18T02:15:40.706Z,8.20
2023-02-18T02:18:19.850Z,8.30
2023-02-18T02:21:17.186Z,8.30
2023-02-18T02:24:21.700Z,8.40
2023-02-18T02:27:21.992Z,8.40
2023-02-18T02:30:10.541Z,8.40
2023-02-18T02:33:10.633Z,8.40
2023-02-18T02:36:03.505Z,8.40
2023-02-18T02:38:59.050Z,8.40
2023-02-18T02:41:39.462Z,8.50
2023-02-18T02:44:26.726Z,8.50
2023-02-18T02:46:59.234Z,8.50
2023-02-18T02:50:12.838Z,8.50
2023-02-18T02:52:50.204Z,8.70
2023-02-18T02:55:16.986Z,8.70
2023-02-18T02:57:50.507Z,8.70
2023-02-18T03:00:21.457Z,8.70
2023-02-18T03:03:20.231Z,8.70
2023-02-18T03:05:58.379Z,8.70
2023-02-18T03:08:51.350Z,8.80
2023-02-18T03:11:21.001Z,8.80
2023-02-18T03:14:15.388Z,8.90
2023-02-18T03:17:01.576Z,8.90
2023-02-18T03:19:46.365Z,9.00
2023-02-18T03:22:18.851Z,9.00
2023-02-18T03:24:53.495Z,9.10
2023-02-18T03:27:28.965Z,9.10
2023-02-18T03:30:02.098Z,9.10
2023-02-18T03:32:31.604Z,9.20
2023-02-18T03:35:04.878Z,9.20
2023-02-18T03:37:35.768Z,9.20
2023-02-18T03:40:02.841Z,9.20
2023-02-18T03:42:30.244Z,9.30
2023-02-18T03:44:57.050Z,9.30
2023-02-18T03:47:25.130Z,9.30
2023-02-18T03:49:51.917Z,9.40
2023-02-18T03:52:18.731Z,9.40
2023-02-18T03:54:45.540Z,9.40
2023-02-18T03:57:12.396Z,9.40
2023-02-18T03:59:39.106Z,9.40
2023-02-18T04:02:06.354Z,9.40
2023-02-18T04:04:36.124Z,9.40
2023-02-18T04:07:05.490Z,9.40
2023-02-18T04:09:32.325Z,9.40
2023-02-18T04:11:59.197Z,9.40
2023-02-18T04:14:25.968Z,9.40
2023-02-18T04:16:53.271Z,9.40
2023-02-18T04:19:22.858Z,9.50
2023-02-18T04:21:49.669Z,9.50
2023-02-18T04:24:16.835Z,9.60
2023-02-18T04:26:43.986Z,9.60
2023-02-18T04:29:10.767Z,9.60
2023-02-18T04:31:37.665Z,9.70
2023-02-18T04:34:04.678Z,9.70
2023-02-18T04:36:36.380Z,9.70
2023-02-18T04:39:06.794Z,9.70
2023-02-18T04:41:34.197Z,9.70
2023-02-18T04:44:01.464Z,9.80
2023-02-18T04:46:28.994Z,9.80
2023-02-18T04:48:55.808Z,9.80
2023-02-18T04:51:25.602Z,9.80
2023-02-18T04:53:55.148Z,9.90
2023-02-18T04:56:24.407Z,9.90
2023-02-18T04:58:54.612Z,9.90
2023-02-18T05:01:21.825Z,9.90
2023-02-18T05:03:49.078Z,9.90
2023-02-18T05:06:15.967Z,9.90
2023-02-18T05:08:42.947Z,10.00
2023-02-18T05:11:10.049Z,10.00
2023-02-18T05:13:37.240Z,10.00
2023-02-18T05:16:04.709Z,10.00
2023-02-18T05:18:34.931Z,10.00
2023-02-18T05:21:07.327Z,10.00
2023-02-18T05:23:34.245Z,10.00
2023-02-18T05:26:01.014Z,10.00
2023-02-18T05:28:31.217Z,10.00
2023-02-18T05:30:58.727Z,10.60
2023-02-18T05:33:25.648Z,10.00
2023-02-18T05:35:55.395Z,10.00
2023-02-18T05:38:22.198Z,10.00
2023-02-18T05:40:52.444Z,10.00
2023-02-18T05:43:19.730Z,10.00
2023-02-18T05:45:46.674Z,10.10
2023-02-18T05:48:18.593Z,10.10
2023-02-18T05:50:45.457Z,10.10
2023-02-18T05:53:12.326Z,10.10
2023-02-18T05:55:39.455Z,10.10
2023-02-18T05:58:06.607Z,10.10
2023-02-18T06:00:33.463Z,10.10
2023-02-18T06:03:00.704Z,10.20
2023-02-18T06:05:27.815Z,10.20
2023-02-18T06:07:56.723Z,10.20
2023-02-18T06:10:25.780Z,10.20
2023-02-18T06:12:54.576Z,10.10
2023-02-18T06:15:21.350Z,10.10
2023-02-18T06:17:48.144Z,10.20
2023-02-18T06:20:15.425Z,10.20
2023-02-18T06:22:45.809Z,10.10
2023-02-18T06:25:13.399Z,10.10
2023-02-18T06:27:43.339Z,10.10
2023-02-18T06:30:10.703Z,10.10
2023-02-18T06:32:37.481Z,10.10
2023-02-18T06:35:04.457Z,10.10
2023-02-18T06:37:31.213Z,10.10
2023-02-18T06:39:58.040Z,10.10
2023-02-18T06:42:24.846Z,10.10
2023-02-18T06:44:51.640Z,10.10
2023-02-18T06:47:21.181Z,10.10
2023-02-18T06:49:48.263Z,10.10
2023-02-18T06:52:17.585Z,10.10
2023-02-18T06:54:46.944Z,10.10
2023-02-18T06:57:13.820Z,10.10
2023-02-18T06:59:40.595Z,10.10
2023-02-18T07:02:08.364Z,10.20
2023-02-18T07:04:35.712Z,10.20
2023-02-18T07:07:02.538Z,10.20
2023-02-18T07:09:29.673Z,10.20
2023-02-18T07:11:56.464Z,10.20
2023-02-18T07:14:24.445Z,10.20
2023-02-18T07:16:51.584Z,10.20
2023-02-18T07:19:23.228Z,10.20
2023-02-18T07:21:54.488Z,10.20
2023-02-18T07:24:24.201Z,10.20
2023-02-18T07:26:51.006Z,10.20
2023-02-18T07:29:18.062Z,10.20
2023-02-18T07:31:45.013Z,10.20
2023-02-18T07:34:12.008Z,10.20
2023-02-18T07:36:38.920Z,10.20
2023-02-18T07:39:05.785Z,10.20
2023-02-18T07:41:32.885Z,10.20
2023-02-18T07:43:59.972Z,10.20
2023-02-18T07:46:27.219Z,10.20
2023-02-18T07:48:54.279Z,10.20
2023-02-18T07:51:21.042Z,10.20
2023-02-18T07:53:48.346Z,10.30
2023-02-18T07:56:15.686Z,10.30
2023-02-18T07:58:43.829Z,10.30
2023-02-18T08:01:15.079Z,10.30
2023-02-18T08:03:42.667Z,10.20
2023-02-18T08:06:26.427Z,10.20
2023-02-18T08:08:55.934Z,10.20
2023-02-18T08:11:23.403Z,10.20
2023-02-18T08:13:57.794Z,10.20
2023-02-18T08:16:25.035Z,10.30
2023-02-18T08:18:53.011Z,10.20
2023-02-18T08:21:22.848Z,10.30
2023-02-18T08:23:50.410Z,10.20
2023-02-18T08:26:20.743Z,10.20
2023-02-18T08:28:48.996Z,10.20
2023-02-18T08:31:25.013Z,10.20
2023-02-18T08:33:55.392Z,10.20
2023-02-18T08:36:22.737Z,10.20
2023-02-18T08:38:49.637Z,10.20
2023-02-18T08:41:19.129Z,10.20
2023-02-18T08:43:46.996Z,10.30
2023-02-18T08:46:16.031Z,10.30
2023-02-18T08:48:44.197Z,10.30
2023-02-18T08:51:16.362Z,10.30
2023-02-18T08:53:43.732Z,10.30
2023-02-18T08:56:14.732Z,10.30
2023-02-18T08:58:42.505Z,10.30
2023-02-18T09:01:11.374Z,10.30
2023-02-18T09:03:38.825Z,10.30
2023-02-18T09:06:06.262Z,10.30
2023-02-18T09:08:33.463Z,10.20
2023-02-18T09:11:04.866Z,10.20
2023-02-18T09:13:35.232Z,10.20
2023-02-18T09:16:05.823Z,10.20
2023-02-18T09:18:35.675Z,10.20
2023-02-18T09:21:03.792Z,10.20
2023-02-18T09:23:32.394Z,10.20
2023-02-18T09:26:01.264Z,10.20
2023-02-18T09:28:28.533Z,10.20
2023-02-18T09:30:56.327Z,10.20
2023-02-18T09:33:23.794Z,10.20
2023-02-18T09:35:50.738Z,10.20
2023-02-18T09:38:18.663Z,10.10
2023-02-18T09:40:50.936Z,10.10
2023-02-18T09:43:33.494Z,10.10
2023-02-18T09:46:02.663Z,10.20
2023-02-18T09:48:36.156Z,10.20
2023-02-18T09:51:03.341Z,10.20
2023-02-18T09:53:32.136Z,10.20
2023-02-18T09:56:00.496Z,10.10
2023-02-18T09:58:31.581Z,10.10
2023-02-18T10:01:20.490Z,10.10
2023-02-18T10:03:47.608Z,10.00
2023-02-18T10:06:25.592Z,10.00
2023-02-18T10:08:55.987Z,10.00
2023-02-18T10:11:40.544Z,10.00
2023-02-18T10:14:17.325Z,10.00
2023-02-18T10:16:46.513Z,10.00
2023-02-18T10:19:28.506Z,10.00
2023-02-18T10:21:56.314Z,10.00
2023-02-18T10:24:38.028Z,10.00
2023-02-18T10:27:17.605Z,10.00
2023-02-18T10:29:44.492Z,10.00
2023-02-18T10:32:23.575Z,10.00
2023-02-18T10:35:05.961Z,10.00
2023-02-18T10:37:35.629Z,10.00
2023-02-18T10:40:28.990Z,9.90
2023-02-18T10:43:13.594Z,9.90
2023-02-18T10:45:46.357Z,9.90
2023-02-18T10:48:15.990Z,9.70
2023-02-18T10:50:45.009Z,9.80
2023-02-18T10:53:22.257Z,9.70
2023-02-18T10:55:50.146Z,9.70
2023-02-18T10:58:42.204Z,9.70
2023-02-18T11:01:19.724Z,9.70
2023-02-18T11:03:52.245Z,9.60
2023-02-18T11:06:29.617Z,9.50
2023-02-18T11:08:57.874Z,9.60
2023-02-18T11:11:30.681Z,9.70
2023-02-18T11:14:00.517Z,9.60
2023-02-18T11:16:46.898Z,9.60
2023-02-18T11:19:34.998Z,9.60
2023-02-18T11:22:19.233Z,9.70
2023-02-18T11:24:50.373Z,9.70
2023-02-18T11:27:27.017Z,9.60
2023-02-18T11:30:01.346Z,9.60
2023-02-18T11:32:32.470Z,9.60
2023-02-18T11:34:59.567Z,9.50
2023-02-18T11:37:26.621Z,9.60
2023-02-18T11:39:55.774Z,9.50
2023-02-18T11:42:26.744Z,9.50
2023-02-18T11:44:59.502Z,9.50
2023-02-18T11:47:37.038Z,9.50
2023-02-18T11:50:15.070Z,9.50
2023-02-18T11:52:45.065Z,9.50
2023-02-18T11:55:27.411Z,9.50
2023-02-18T11:58:02.577Z,9.50
2023-02-18T12:00:47.923Z,9.50
2023-02-18T12:03:35.191Z,9.50
2023-02-18T12:06:11.573Z,9.40
2023-02-18T12:09:01.759Z,9.60
2023-02-18T12:11:43.540Z,9.50
2023-02-18T12:14:17.839Z,9.50
2023-02-18T12:16:48.930Z,9.60
2023-02-18T12:19:44.258Z,9.50
2023-02-18T12:22:22.199Z,9.60
2023-02-18T12:25:17.189Z,9.50
2023-02-18T12:27:56.702Z,9.50
2023-02-18T12:30:39.680Z,9.50
2023-02-18T12:33:23.474Z,9.40
2023-02-18T12:36:04.171Z,9.50
2023-02-18T12:38:38.478Z,9.40
2023-02-18T12:41:26.633Z,9.50
2023-02-18T12:44:11.523Z,9.50
2023-02-18T12:46:51.973Z,9.50
2023-02-18T12:49:40.194Z,9.50
2023-02-18T12:52:44.508Z,9.50
2023-02-18T12:55:29.589Z,9.50
2023-02-18T12:58:07.746Z,9.50
2023-02-18T13:01:09.150Z,9.50
2023-02-18T13:03:47.036Z,9.50
2023-02-18T13:06:47.949Z,9.50
2023-02-18T13:09:42.259Z,9.50
2023-02-18T13:12:32.260Z,9.50
2023-02-18T13:15:19.890Z,9.60
2023-02-18T13:17:48.872Z,9.60
2023-02-18T13:20:26.388Z,9.50
2023-02-18T13:22:53.749Z,9.50
2023-02-18T13:25:22.052Z,9.50
2023-02-18T13:28:18.229Z,9.60
2023-02-18T13:31:40.812Z,9.60
2023-02-18T13:34:29.450Z,9.60
2023-02-18T13:37:18.163Z,9.60
2023-02-18T13:39:52.069Z,9.60
2023-02-18T13:42:18.887Z,9.60
2023-02-18T13:44:48.650Z,9.60
2023-02-18T13:47:43.028Z,9.70
2023-02-18T13:50:32.556Z,9.70
2023-02-18T13:53:08.631Z,9.80
2023-02-18T13:55:51.675Z,9.80
2023-02-18T13:58:31.946Z,9.80
2023-02-18T14:01:06.404Z,9.80
2023-02-18T14:03:36.261Z,9.80
2023-02-18T14:06:19.750Z,9.80
2023-02-18T14:08:47.101Z,9.80
2023-02-18T14:11:14.713Z,9.90
2023-02-18T14:13:56.279Z,9.90
2023-02-18T14:16:23.173Z,9.90
2023-02-18T14:18:59.356Z,9.90
2023-02-18T14:21:38.745Z,9.90
2023-02-18T14:24:09.732Z,9.90
2023-02-18T14:26:46.104Z,9.90
2023-02-18T14:29:19.290Z,9.80
2023-02-18T14:32:01.428Z,9.80
2023-02-18T14:34:49.976Z,9.80
2023-02-18T14:37:26.459Z,9.90
2023-02-18T14:39:56.452Z,9.90
2023-02-18T14:42:26.155Z,9.80
2023-02-18T14:45:01.948Z,9.80
2023-02-18T14:48:08.534Z,9.80
2023-02-18T14:50:44.720Z,9.80
2023-02-18T14:53:29.810Z,9.90
2023-02-18T14:56:11.743Z,9.80
2023-02-18T14:58:43.461Z,9.90
2023-02-18T15:01:35.757Z,9.90
2023-02-18T15:04:04.784Z,9.90
2023-02-18T15:06:34.356Z,9.80
2023-02-18T15:09:28.988Z,9.80
2023-02-18T15:12:08.123Z,9.80
2023-02-18T15:14:40.330Z,9.80
2023-02-18T15:17:16.911Z,9.90
2023-02-18T15:19:51.244Z,9.90
2023-02-18T15:22:21.355Z,9.90
2023-02-18T15:24:49.962Z,9.90
2023-02-18T15:27:24.701Z,10.40
2023-02-18T15:30:22.174Z,9.90
2023-02-18T15:32:54.043Z,9.90
2023-02-18T15:35:23.174Z,10.00
2023-02-18T15:37:55.610Z,10.00
2023-02-18T15:40:25.943Z,10.00
2023-02-18T15:42:56.894Z,10.00
2023-02-18T15:45:29.562Z,10.00
2023-02-18T15:47:58.561Z,9.90
2023-02-18T15:50:29.331Z,9.90
2023-02-18T15:53:00.392Z,10.00
2023-02-18T15:55:40.039Z,10.00
2023-02-18T15:58:17.238Z,10.00
2023-02-18T16:00:53.300Z,9.90
2023-02-18T16:03:32.314Z,9.90
2023-02-18T16:06:30.265Z,9.90
2023-02-18T16:09:18.510Z,9.90
2023-02-18T16:11:58.200Z,9.90
2023-02-18T16:14:54.917Z,9.90
2023-02-18T16:17:25.159Z,9.90
2023-02-18T16:20:05.158Z,9.90
2023-02-18T16:22:33.699Z,9.90
2023-02-18T16:25:11.104Z,9.90
2023-02-18T16:27:46.782Z,9.90
2023-02-18T16:30:23.539Z,10.00
2023-02-18T16:32:52.222Z,10.00
2023-02-18T16:35:19.754Z,10.00
2023-02-18T16:37:50.128Z,10.00
2023-02-18T16:40:38.467Z,9.90
2023-02-18T16:43:17.144Z,10.00
2023-02-18T16:45:50.364Z,10.00
2023-02-18T16:48:30.193Z,9.90
2023-02-18T16:51:01.972Z,9.90
2023-02-18T16:53:28.839Z,9.90
2023-02-18T16:55:56.044Z,9.90
2023-02-18T16:58:24.915Z,9.90
2023-02-18T17:00:52.907Z,9.90
2023-02-18T17:03:20.832Z,9.90
2023-02-18T17:05:47.803Z,9.90
2023-02-18T17:08:22.932Z,9.90
2023-02-18T17:10:56.006Z,9.90
2023-02-18T17:13:29.248Z,9.90
2023-02-18T17:15:58.448Z,9.90
2023-02-18T17:18:26.968Z,9.80
2023-02-18T17:20:54.210Z,9.90
2023-02-18T17:23:23.357Z,9.90
2023-02-18T17:25:52.085Z,9.90
2023-02-18T17:28:19.459Z,10.00
2023-02-18T17:30:49.311Z,10.00
2023-02-18T17:33:19.366Z,10.00
2023-02-18T17:35:48.393Z,9.90
2023-02-18T17:38:18.252Z,9.90
2023-02-18T17:40:45.947Z,10.00
2023-02-18T17:43:15.431Z,10.00
2023-02-18T17:45:50.533Z,10.00
2023-02-18T17:48:17.597Z,10.00
2023-02-18T17:50:44.472Z,10.00
2023-02-18T17:53:15.324Z,10.00
2023-02-18T17:55:43.197Z,10.00
2023-02-18T17:58:11.179Z,10.00
2023-02-18T18:00:41.407Z,9.90
2023-02-18T18:03:09.347Z,9.90
2023-02-18T18:05:39.917Z,9.90
2023-02-18T18:08:10.418Z,9.90
2023-02-18T18:10:48.492Z,9.90
2023-02-18T18:13:22.206Z,9.80
2023-02-18T18:15:49.196Z,9.80
2023-02-18T18:18:18.242Z,9.80
2023-02-18T18:20:48.163Z,9.80
2023-02-18T18:23:17.558Z,9.80
2023-02-18T18:25:50.578Z,9.80
2023-02-18T18:28:17.871Z,9.70
2023-02-18T18:30:48.546Z,9.70
2023-02-18T18:33:19.172Z,9.70
2023-02-18T18:35:47.868Z,9.60
2023-02-18T18:38:14.891Z,9.70
2023-02-18T18:40:42.387Z,9.60
2023-02-18T18:43:18.697Z,9.60
2023-02-18T18:45:46.624Z,9.50
2023-02-18T18:48:13.918Z,9.40
2023-02-18T18:50:42.144Z,9.50
2023-02-18T18:53:35.863Z,9.60
2023-02-18T18:56:06.334Z,9.50
2023-02-18T18:58:33.820Z,9.60
2023-02-18T19:01:04.058Z,9.60
2023-02-18T19:03:33.856Z,9.60
2023-02-18T19:06:00.821Z,9.60
2023-02-18T19:08:27.752Z,9.60
2023-02-18T19:10:56.882Z,9.60
2023-02-18T19:13:29.190Z,9.60
2023-02-18T19:16:16.518Z,9.60
2023-02-18T19:18:43.667Z,9.70
2023-02-18T19:21:12.328Z,9.70
2023-02-18T19:23:39.628Z,9.60
2023-02-18T19:26:10.358Z,9.60
2023-02-18T19:28:39.372Z,9.60
2023-02-18T19:31:13.498Z,9.50
2023-02-18T19:33:45.571Z,9.60
2023-02-18T19:36:13.626Z,9.50
2023-02-18T19:38:40.714Z,9.50
2023-02-18T19:41:13.566Z,9.40
2023-02-18T19:43:42.029Z,9.40
2023-02-18T19:46:14.532Z,9.40
2023-02-18T19:48:42.101Z,9.50
2023-02-18T19:51:10.383Z,9.40
2023-02-18T19:53:37.496Z,9.40
2023-02-18T19:56:08.179Z,9.40
2023-02-18T19:58:36.292Z,9.50
2023-02-18T20:01:03.954Z,9.50
2023-02-18T20:03:30.873Z,9.50
2023-02-18T20:05:57.769Z,9.50
2023-02-18T20:08:26.403Z,9.60
2023-02-18T20:10:58.765Z,9.50
2023-02-18T20:13:25.692Z,9.60
2023-02-18T20:15:52.613Z,9.60
2023-02-18T20:18:19.829Z,9.50
2023-02-18T20:20:50.573Z,9.50
2023-02-18T20:23:18.044Z,9.50
2023-02-18T20:25:47.701Z,9.50
2023-02-18T20:28:15.746Z,9.50
2023-02-18T20:30:48.950Z,9.50
2023-02-18T20:33:16.045Z,9.40
2023-02-18T20:35:42.897Z,9.40
2023-02-18T20:38:13.395Z,9.40
2023-02-18T20:40:40.500Z,9.50
2023-02-18T20:43:07.604Z,9.50
2023-02-18T20:45:34.417Z,9.40
2023-02-18T20:48:01.354Z,9.40
2023-02-18T20:50:28.573Z,9.40
2023-02-18T20:52:55.501Z,9.50
2023-02-18T20:55:22.632Z,9.50
2023-02-18T20:57:49.588Z,9.50
2023-02-18T21:00:16.673Z,9.50
2023-02-18T21:02:43.935Z,9.50
2023-02-18T21:05:11.569Z,9.50
2023-02-18T21:07:38.781Z,9.50
2023-02-18T21:10:06.729Z,9.50
2023-02-18T21:12:33.648Z,9.50
2023-02-18T21:15:00.833Z,9.50
2023-02-18T21:17:27.943Z,9.50
2023-02-18T21:19:55.123Z,9.50
2023-02-18T21:22:26.619Z,9.50
2023-02-18T21:24:55.907Z,9.60
2023-02-18T21:27:22.754Z,9.50
2023-02-18T21:29:49.703Z,9.50
2023-02-18T21:32:16.679Z,9.50
2023-02-18T21:34:43.590Z,9.50
2023-02-18T21:37:10.554Z,9.60
2023-02-18T21:39:40.553Z,9.50
2023-02-18T21:42:07.463Z,9.50
2023-02-18T21:44:42.410Z,9.60
2023-02-18T21:47:09.951Z,9.60
2023-02-18T21:49:36.764Z,9.60
2023-02-18T21:52:10.100Z,9.60
2023-02-18T21:54:46.232Z,9.60
2023-02-18T21:57:22.363Z,9.60
2023-02-18T21:59:49.239Z,9.60
2023-02-18T22:02:18.993Z,9.50
2023-02-18T22:04:47.002Z,9.60
2023-02-18T22:07:14.862Z,9.50
2023-02-18T22:09:42.180Z,9.50
2023-02-18T22:12:09.730Z,9.60
2023-02-18T22:14:36.810Z,9.60
2023-02-18T22:17:04.273Z,9.50
2023-02-18T22:19:31.991Z,9.60
2023-02-18T22:21:58.991Z,9.60
2023-02-18T22:24:25.965Z,9.60
2023-02-18T22:26:52.837Z,9.60
2023-02-18T22:29:20.750Z,9.50
2023-02-18T22:31:49.640Z,9.50
2023-02-18T22:34:17.764Z,9.50
2023-02-18T22:36:44.649Z,9.50
2023-02-18T22:39:12.881Z,9.60
2023-02-18T22:41:39.697Z,9.50
2023-02-18T22:44:08.856Z,9.50
2023-02-18T22:46:36.882Z,9.50
2023-02-18T22:49:06.176Z,9.40
2023-02-18T22:51:38.927Z,9.50
2023-02-18T22:54:09.671Z,9.40
2023-02-18T22:56:36.524Z,9.40
2023-02-18T22:59:03.596Z,9.40
2023-02-18T23:01:36.125Z,9.30
2023-02-18T23:04:09.471Z,9.40
2023-02-18T23:06:38.460Z,9.40
2023-02-18T23:09:06.542Z,9.30
2023-02-18T23:11:33.768Z,9.30
2023-02-18T23:14:19.284Z,9.40
2023-02-18T23:17:09.363Z,9.30
2023-02-18T23:19:37.327Z,9.30
2023-02-18T23:22:04.782Z,9.40
2023-02-18T23:24:36.767Z,9.40
2023-02-18T23:27:04.810Z,9.30
2023-02-18T23:29:32.004Z,9.30
2023-02-18T23:31:58.969Z,9.30
2023-02-18T23:34:26.135Z,9.40
2023-02-18T23:36:53.040Z,9.40
2023-02-18T23:39:21.829Z,9.40
2023-02-18T23:41:50.071Z,9.40
2023-02-18T23:44:18.950Z,9.40
2023-02-18T23:46:46.134Z,9.40
2023-02-18T23:49:26.307Z,9.30
2023-02-18T23:51:55.300Z,9.40
2023-02-18T23:54:23.313Z,9.40
2023-02-18T23:56:50.249Z,9.40
2023-02-18T23:59:17.664Z,9.40
